Terminal Aerodrome Forecast
Issued by NWS

Home | Current Version | Previous Version | Graphics & Text | Print | Product List | Glossary On
Versions: 1 2 3 4 5 6 7 8 9 10 11 12 13 14 15 16 17 18 19 20
000
FTUS43 KGRB 151139
TAFRHI
TAF
KRHI 151139Z 1512/1612 23006KT 2SM -RADZ BKN003
      TEMPO 1512/1515 1SM -RADZ VV002
     FM151500 28008KT 1SM -DZ BR OVC003
     FM151800 29009KT P6SM VCSH BKN008
     FM160200 31010G21KT 6SM -SHSN OVC015
     FM160800 33009KT P6SM BKN030=

USA.gov is the U.S. government's official web portal to all federal, state and local government web resources and services.